sensor_id;sensor_type;location;lat;lon;timestamp;P1;durP1;ratioP1;P2;durP2;ratioP2
39918;SDS011;25589;51.552;13.424;2023-03-16T00:01:15;8.18;;;4.68;;
39918;SDS011;25589;51.552;13.424;2023-03-16T00:03:41;8.38;;;4.70;;
39918;SDS011;25589;51.552;13.424;2023-03-16T00:06:07;6.85;;;4.75;;
39918;SDS011;25589;51.552;13.424;2023-03-16T00:08:33;9.57;;;4.22;;
39918;SDS011;25589;51.552;13.424;2023-03-16T00:10:59;9.02;;;4.30;;
39918;SDS011;25589;51.552;13.424;2023-03-16T00:13:27;7.80;;;3.40;;
39918;SDS011;25589;51.552;13.424;2023-03-16T00:15:53;5.43;;;3.33;;
39918;SDS011;25589;51.552;13.424;2023-03-16T00:18:21;4.45;;;3.63;;
39918;SDS011;25589;51.552;13.424;2023-03-16T00:20:55;6.00;;;3.45;;
39918;SDS011;25589;51.552;13.424;2023-03-16T00:23:23;4.78;;;3.72;;
39918;SDS011;25589;51.552;13.424;2023-03-16T00:25:53;5.40;;;3.28;;
39918;SDS011;25589;51.552;13.424;2023-03-16T00:28:27;6.97;;;3.72;;
39918;SDS011;25589;51.552;13.424;2023-03-16T00:30:58;6.95;;;3.15;;
39918;SDS011;25589;51.552;13.424;2023-03-16T00:33:25;7.00;;;3.75;;
39918;SDS011;25589;51.552;13.424;2023-03-16T00:35:51;7.35;;;3.30;;
39918;SDS011;25589;51.552;13.424;2023-03-16T00:38:26;11.05;;;3.55;;
39918;SDS011;25589;51.552;13.424;2023-03-16T00:40:52;5.60;;;3.47;;
39918;SDS011;25589;51.552;13.424;2023-03-16T00:43:18;8.25;;;3.50;;
39918;SDS011;25589;51.552;13.424;2023-03-16T00:45:44;7.28;;;3.47;;
39918;SDS011;25589;51.552;13.424;2023-03-16T00:48:10;6.00;;;3.08;;
39918;SDS011;25589;51.552;13.424;2023-03-16T00:50:36;4.97;;;3.28;;
39918;SDS011;25589;51.552;13.424;2023-03-16T00:53:02;6.22;;;3.65;;
39918;SDS011;25589;51.552;13.424;2023-03-16T00:55:27;7.40;;;3.45;;
39918;SDS011;25589;51.552;13.424;2023-03-16T00:57:53;5.10;;;3.25;;
39918;SDS011;25589;51.552;13.424;2023-03-16T01:00:19;8.50;;;3.47;;
39918;SDS011;25589;51.552;13.424;2023-03-16T01:02:46;4.28;;;3.58;;
39918;SDS011;25589;51.552;13.424;2023-03-16T01:05:12;6.70;;;3.25;;
39918;SDS011;25589;51.552;13.424;2023-03-16T01:07:38;5.28;;;3.20;;
39918;SDS011;25589;51.552;13.424;2023-03-16T01:10:04;10.57;;;3.38;;
39918;SDS011;25589;51.552;13.424;2023-03-16T01:12:31;5.50;;;3.35;;
39918;SDS011;25589;51.552;13.424;2023-03-16T01:14:58;5.40;;;3.38;;
39918;SDS011;25589;51.552;13.424;2023-03-16T01:17:24;6.68;;;3.17;;
39918;SDS011;25589;51.552;13.424;2023-03-16T01:19:51;4.85;;;3.30;;
39918;SDS011;25589;51.552;13.424;2023-03-16T01:22:16;7.43;;;3.60;;
39918;SDS011;25589;51.552;13.424;2023-03-16T01:24:42;5.65;;;3.13;;
39918;SDS011;25589;51.552;13.424;2023-03-16T01:27:09;6.53;;;3.72;;
39918;SDS011;25589;51.552;13.424;2023-03-16T01:29:37;6.03;;;3.80;;
39918;SDS011;25589;51.552;13.424;2023-03-16T01:32:04;5.05;;;3.42;;
39918;SDS011;25589;51.552;13.424;2023-03-16T01:34:32;5.15;;;3.28;;
39918;SDS011;25589;51.552;13.424;2023-03-16T01:36:58;6.55;;;3.83;;
39918;SDS011;25589;51.552;13.424;2023-03-16T01:39:44;7.35;;;4.13;;
39918;SDS011;25589;51.552;13.424;2023-03-16T01:42:11;5.70;;;3.70;;
39918;SDS011;25589;51.552;13.424;2023-03-16T01:44:57;5.75;;;3.70;;
39918;SDS011;25589;51.552;13.424;2023-03-16T01:47:33;5.93;;;3.53;;
39918;SDS011;25589;51.552;13.424;2023-03-16T01:50:02;6.93;;;3.13;;
39918;SDS011;25589;51.552;13.424;2023-03-16T01:52:33;5.38;;;3.38;;
39918;SDS011;25589;51.552;13.424;2023-03-16T01:55:02;12.40;;;3.75;;
39918;SDS011;25589;51.552;13.424;2023-03-16T01:57:33;8.73;;;4.55;;
39918;SDS011;25589;51.552;13.424;2023-03-16T02:00:07;7.55;;;4.22;;
39918;SDS011;25589;51.552;13.424;2023-03-16T02:02:39;5.45;;;3.45;;
39918;SDS011;25589;51.552;13.424;2023-03-16T02:05:13;8.45;;;3.63;;
39918;SDS011;25589;51.552;13.424;2023-03-16T02:07:45;6.90;;;3.92;;
39918;SDS011;25589;51.552;13.424;2023-03-16T02:10:16;6.60;;;4.20;;
39918;SDS011;25589;51.552;13.424;2023-03-16T02:12:43;7.60;;;4.13;;
39918;SDS011;25589;51.552;13.424;2023-03-16T02:15:10;8.90;;;3.70;;
39918;SDS011;25589;51.552;13.424;2023-03-16T02:17:38;8.10;;;4.20;;
39918;SDS011;25589;51.552;13.424;2023-03-16T02:20:30;4.45;;;4.05;;
39918;SDS011;25589;51.552;13.424;2023-03-16T02:23:12;4.82;;;3.97;;
39918;SDS011;25589;51.552;13.424;2023-03-16T02:28:48;9.35;;;4.28;;
39918;SDS011;25589;51.552;13.424;2023-03-16T02:31:21;5.13;;;3.47;;
39918;SDS011;25589;51.552;13.424;2023-03-16T02:33:47;9.23;;;4.30;;
39918;SDS011;25589;51.552;13.424;2023-03-16T02:36:15;6.38;;;3.67;;
39918;SDS011;25589;51.552;13.424;2023-03-16T02:38:43;4.88;;;3.58;;
39918;SDS011;25589;51.552;13.424;2023-03-16T02:41:14;7.07;;;4.00;;
39918;SDS011;25589;51.552;13.424;2023-03-16T02:43:42;8.98;;;4.50;;
39918;SDS011;25589;51.552;13.424;2023-03-16T02:46:28;5.55;;;4.20;;
39918;SDS011;25589;51.552;13.424;2023-03-16T02:49:07;6.50;;;4.32;;
39918;SDS011;25589;51.552;13.424;2023-03-16T02:51:52;8.83;;;4.50;;
39918;SDS011;25589;51.552;13.424;2023-03-16T02:54:19;7.25;;;3.97;;
39918;SDS011;25589;51.552;13.424;2023-03-16T02:56:45;6.93;;;3.67;;
39918;SDS011;25589;51.552;13.424;2023-03-16T02:59:12;6.55;;;4.22;;
39918;SDS011;25589;51.552;13.424;2023-03-16T03:01:38;5.35;;;4.13;;
39918;SDS011;25589;51.552;13.424;2023-03-16T03:04:04;5.15;;;4.05;;
39918;SDS011;25589;51.552;13.424;2023-03-16T03:06:30;9.95;;;4.22;;
39918;SDS011;25589;51.552;13.424;2023-03-16T03:08:57;8.13;;;4.78;;
39918;SDS011;25589;51.552;13.424;2023-03-16T03:11:24;7.03;;;4.10;;
39918;SDS011;25589;51.552;13.424;2023-03-16T03:13:49;7.22;;;4.57;;
39918;SDS011;25589;51.552;13.424;2023-03-16T03:16:19;4.82;;;3.90;;
39918;SDS011;25589;51.552;13.424;2023-03-16T03:18:46;9.32;;;4.57;;
39918;SDS011;25589;51.552;13.424;2023-03-16T03:21:12;9.98;;;5.05;;
39918;SDS011;25589;51.552;13.424;2023-03-16T03:23:39;6.60;;;3.90;;
39918;SDS011;25589;51.552;13.424;2023-03-16T03:26:06;5.85;;;4.30;;
39918;SDS011;25589;51.552;13.424;2023-03-16T03:28:32;5.88;;;4.50;;
39918;SDS011;25589;51.552;13.424;2023-03-16T03:30:58;7.25;;;4.15;;
39918;SDS011;25589;51.552;13.424;2023-03-16T03:33:26;7.18;;;4.40;;
39918;SDS011;25589;51.552;13.424;2023-03-16T03:35:53;5.95;;;4.00;;
39918;SDS011;25589;51.552;13.424;2023-03-16T03:38:20;9.05;;;4.25;;
39918;SDS011;25589;51.552;13.424;2023-03-16T03:40:50;9.73;;;4.47;;
39918;SDS011;25589;51.552;13.424;2023-03-16T03:43:17;7.32;;;4.20;;
39918;SDS011;25589;51.552;13.424;2023-03-16T03:45:45;5.75;;;4.30;;
39918;SDS011;25589;51.552;13.424;2023-03-16T03:48:11;8.10;;;4.10;;
39918;SDS011;25589;51.552;13.424;2023-03-16T03:50:37;7.40;;;4.80;;
39918;SDS011;25589;51.552;13.424;2023-03-16T03:53:24;6.38;;;3.85;;
39918;SDS011;25589;51.552;13.424;2023-03-16T03:56:06;5.38;;;3.92;;
39918;SDS011;25589;51.552;13.424;2023-03-16T03:58:32;5.78;;;4.20;;
39918;SDS011;25589;51.552;13.424;2023-03-16T04:00:57;11.65;;;4.35;;
39918;SDS011;25589;51.552;13.424;2023-03-16T04:03:23;6.03;;;3.67;;
39918;SDS011;25589;51.552;13.424;2023-03-16T04:05:48;7.97;;;3.85;;
39918;SDS011;25589;51.552;13.424;2023-03-16T04:08:14;9.43;;;4.25;;
39918;SDS011;25589;51.552;13.424;2023-03-16T04:10:40;7.25;;;3.80;;
39918;SDS011;25589;51.552;13.424;2023-03-16T04:13:06;5.65;;;3.45;;
39918;SDS011;25589;51.552;13.424;2023-03-16T04:15:32;6.43;;;3.80;;
39918;SDS011;25589;51.552;13.424;2023-03-16T04:18:08;7.47;;;3.50;;
39918;SDS011;25589;51.552;13.424;2023-03-16T04:20:35;7.97;;;3.58;;
39918;SDS011;25589;51.552;13.424;2023-03-16T04:23:01;6.40;;;3.67;;
39918;SDS011;25589;51.552;13.424;2023-03-16T04:25:28;7.50;;;4.00;;
39918;SDS011;25589;51.552;13.424;2023-03-16T04:27:55;7.18;;;3.60;;
39918;SDS011;25589;51.552;13.424;2023-03-16T04:30:24;7.38;;;4.13;;
39918;SDS011;25589;51.552;13.424;2023-03-16T04:32:54;7.35;;;3.60;;
39918;SDS011;25589;51.552;13.424;2023-03-16T04:35:20;7.32;;;3.95;;
39918;SDS011;25589;51.552;13.424;2023-03-16T04:37:50;8.95;;;4.00;;
39918;SDS011;25589;51.552;13.424;2023-03-16T04:40:18;8.55;;;4.07;;
39918;SDS011;25589;51.552;13.424;2023-03-16T04:42:51;6.85;;;4.40;;
39918;SDS011;25589;51.552;13.424;2023-03-16T04:45:18;10.00;;;3.90;;
39918;SDS011;25589;51.552;13.424;2023-03-16T04:47:45;7.50;;;4.20;;
39918;SDS011;25589;51.552;13.424;2023-03-16T04:50:11;6.55;;;3.78;;
39918;SDS011;25589;51.552;13.424;2023-03-16T04:52:39;6.95;;;4.00;;
39918;SDS011;25589;51.552;13.424;2023-03-16T04:55:05;9.05;;;4.18;;
39918;SDS011;25589;51.552;13.424;2023-03-16T04:57:32;12.60;;;4.68;;
39918;SDS011;25589;51.552;13.424;2023-03-16T04:59:59;7.00;;;4.53;;
39918;SDS011;25589;51.552;13.424;2023-03-16T05:02:35;5.93;;;3.72;;
39918;SDS011;25589;51.552;13.424;2023-03-16T05:05:03;6.88;;;3.95;;
39918;SDS011;25589;51.552;13.424;2023-03-16T05:07:30;5.53;;;3.83;;
39918;SDS011;25589;51.552;13.424;2023-03-16T05:09:57;9.00;;;4.97;;
39918;SDS011;25589;51.552;13.424;2023-03-16T05:12:22;11.52;;;5.22;;
39918;SDS011;25589;51.552;13.424;2023-03-16T05:14:52;7.82;;;4.25;;
39918;SDS011;25589;51.552;13.424;2023-03-16T05:17:23;6.30;;;4.38;;
39918;SDS011;25589;51.552;13.424;2023-03-16T05:19:49;8.25;;;4.25;;
39918;SDS011;25589;51.552;13.424;2023-03-16T05:22:16;9.25;;;4.57;;
39918;SDS011;25589;51.552;13.424;2023-03-16T05:25:00;5.55;;;4.15;;
39918;SDS011;25589;51.552;13.424;2023-03-16T05:27:28;6.00;;;4.15;;
39918;SDS011;25589;51.552;13.424;2023-03-16T05:29:54;8.63;;;4.20;;
39918;SDS011;25589;51.552;13.424;2023-03-16T05:32:20;6.50;;;3.83;;
39918;SDS011;25589;51.552;13.424;2023-03-16T05:34:46;5.57;;;3.95;;
39918;SDS011;25589;51.552;13.424;2023-03-16T05:37:12;8.85;;;4.45;;
39918;SDS011;25589;51.552;13.424;2023-03-16T05:39:37;9.07;;;4.22;;
39918;SDS011;25589;51.552;13.424;2023-03-16T05:42:03;8.25;;;4.22;;
39918;SDS011;25589;51.552;13.424;2023-03-16T05:44:40;11.75;;;4.57;;
39918;SDS011;25589;51.552;13.424;2023-03-16T05:47:11;5.97;;;4.25;;
39918;SDS011;25589;51.552;13.424;2023-03-16T05:49:42;6.28;;;4.13;;
39918;SDS011;25589;51.552;13.424;2023-03-16T05:52:17;7.97;;;4.00;;
39918;SDS011;25589;51.552;13.424;2023-03-16T05:54:42;8.02;;;4.50;;
39918;SDS011;25589;51.552;13.424;2023-03-16T05:57:09;10.27;;;4.18;;
39918;SDS011;25589;51.552;13.424;2023-03-16T05:59:35;5.88;;;4.25;;
39918;SDS011;25589;51.552;13.424;2023-03-16T06:02:02;8.45;;;4.72;;
39918;SDS011;25589;51.552;13.424;2023-03-16T06:04:27;7.55;;;4.57;;
39918;SDS011;25589;51.552;13.424;2023-03-16T06:06:53;7.25;;;4.47;;
39918;SDS011;25589;51.552;13.424;2023-03-16T06:09:22;9.27;;;4.50;;
39918;SDS011;25589;51.552;13.424;2023-03-16T06:11:47;7.97;;;4.82;;
39918;SDS011;25589;51.552;13.424;2023-03-16T06:14:15;9.73;;;4.75;;
39918;SDS011;25589;51.552;13.424;2023-03-16T06:16:41;10.65;;;5.22;;
39918;SDS011;25589;51.552;13.424;2023-03-16T06:19:07;7.85;;;5.53;;
39918;SDS011;25589;51.552;13.424;2023-03-16T06:21:33;10.73;;;5.97;;
39918;SDS011;25589;51.552;13.424;2023-03-16T06:24:05;9.57;;;5.77;;
39918;SDS011;25589;51.552;13.424;2023-03-16T06:26:33;6.78;;;4.70;;
39918;SDS011;25589;51.552;13.424;2023-03-16T06:29:04;8.98;;;5.10;;
39918;SDS011;25589;51.552;13.424;2023-03-16T06:31:33;8.40;;;5.07;;
39918;SDS011;25589;51.552;13.424;2023-03-16T06:34:00;11.50;;;5.95;;
39918;SDS011;25589;51.552;13.424;2023-03-16T06:36:27;11.10;;;5.55;;
39918;SDS011;25589;51.552;13.424;2023-03-16T06:38:56;8.35;;;5.30;;
39918;SDS011;25589;51.552;13.424;2023-03-16T06:41:31;7.63;;;5.53;;
39918;SDS011;25589;51.552;13.424;2023-03-16T06:43:59;8.02;;;5.68;;
39918;SDS011;25589;51.552;13.424;2023-03-16T06:46:26;11.88;;;6.10;;
39918;SDS011;25589;51.552;13.424;2023-03-16T06:48:52;10.40;;;5.63;;
39918;SDS011;25589;51.552;13.424;2023-03-16T06:51:18;8.48;;;6.20;;
39918;SDS011;25589;51.552;13.424;2023-03-16T06:53:45;9.93;;;5.95;;
39918;SDS011;25589;51.552;13.424;2023-03-16T06:56:11;10.18;;;5.55;;
39918;SDS011;25589;51.552;13.424;2023-03-16T06:58:39;7.95;;;5.50;;
39918;SDS011;25589;51.552;13.424;2023-03-16T07:01:05;7.20;;;5.28;;
39918;SDS011;25589;51.552;13.424;2023-03-16T07:03:31;10.85;;;5.53;;
39918;SDS011;25589;51.552;13.424;2023-03-16T07:06:03;13.00;;;8.85;;
39918;SDS011;25589;51.552;13.424;2023-03-16T07:08:29;131.07;;;54.75;;
39918;SDS011;25589;51.552;13.424;2023-03-16T07:10:55;77.82;;;41.45;;
39918;SDS011;25589;51.552;13.424;2023-03-16T07:13:21;58.53;;;37.63;;
39918;SDS011;25589;51.552;13.424;2023-03-16T07:15:50;47.15;;;32.95;;
39918;SDS011;25589;51.552;13.424;2023-03-16T07:18:18;21.67;;;18.10;;
39918;SDS011;25589;51.552;13.424;2023-03-16T07:20:44;18.38;;;8.60;;
39918;SDS011;25589;51.552;13.424;2023-03-16T07:23:10;85.75;;;46.67;;
39918;SDS011;25589;51.552;13.424;2023-03-16T07:25:37;82.10;;;48.42;;
39918;SDS011;25589;51.552;13.424;2023-03-16T07:28:04;22.13;;;15.18;;
39918;SDS011;25589;51.552;13.424;2023-03-16T07:30:35;83.10;;;64.15;;
39918;SDS011;25589;51.552;13.424;2023-03-16T07:33:00;73.40;;;54.40;;
39918;SDS011;25589;51.552;13.424;2023-03-16T07:35:26;14.30;;;11.43;;
39918;SDS011;25589;51.552;13.424;2023-03-16T07:37:53;25.25;;;20.27;;
39918;SDS011;25589;51.552;13.424;2023-03-16T07:40:19;14.35;;;6.72;;
39918;SDS011;25589;51.552;13.424;2023-03-16T07:42:46;10.15;;;6.93;;
39918;SDS011;25589;51.552;13.424;2023-03-16T07:45:13;7.13;;;5.35;;
39918;SDS011;25589;51.552;13.424;2023-03-16T07:47:41;12.43;;;6.45;;
39918;SDS011;25589;51.552;13.424;2023-03-16T07:50:14;10.98;;;5.55;;
39918;SDS011;25589;51.552;13.424;2023-03-16T07:52:44;10.02;;;6.22;;
39918;SDS011;25589;51.552;13.424;2023-03-16T07:55:11;9.52;;;6.22;;
39918;SDS011;25589;51.552;13.424;2023-03-16T07:57:38;15.02;;;10.88;;
39918;SDS011;25589;51.552;13.424;2023-03-16T08:00:06;13.00;;;9.65;;
39918;SDS011;25589;51.552;13.424;2023-03-16T08:02:38;10.27;;;6.25;;
39918;SDS011;25589;51.552;13.424;2023-03-16T08:05:05;6.68;;;4.53;;
39918;SDS011;25589;51.552;13.424;2023-03-16T08:07:33;7.43;;;4.53;;
39918;SDS011;25589;51.552;13.424;2023-03-16T08:10:06;7.82;;;4.95;;
39918;SDS011;25589;51.552;13.424;2023-03-16T08:12:42;8.45;;;4.82;;
39918;SDS011;25589;51.552;13.424;2023-03-16T08:15:08;9.93;;;4.50;;
39918;SDS011;25589;51.552;13.424;2023-03-16T08:17:34;8.32;;;5.20;;
39918;SDS011;25589;51.552;13.424;2023-03-16T08:20:03;9.00;;;4.38;;
39918;SDS011;25589;51.552;13.424;2023-03-16T08:22:37;5.85;;;4.38;;
39918;SDS011;25589;51.552;13.424;2023-03-16T08:25:04;12.05;;;4.30;;
39918;SDS011;25589;51.552;13.424;2023-03-16T08:27:31;6.93;;;5.47;;
39918;SDS011;25589;51.552;13.424;2023-03-16T08:30:05;9.57;;;5.63;;
39918;SDS011;25589;51.552;13.424;2023-03-16T08:32:36;9.38;;;5.05;;
39918;SDS011;25589;51.552;13.424;2023-03-16T08:35:04;6.35;;;5.03;;
39918;SDS011;25589;51.552;13.424;2023-03-16T08:37:34;7.70;;;4.72;;
39918;SDS011;25589;51.552;13.424;2023-03-16T08:40:01;7.43;;;4.85;;
39918;SDS011;25589;51.552;13.424;2023-03-16T08:42:28;7.38;;;4.30;;
39918;SDS011;25589;51.552;13.424;2023-03-16T08:44:59;8.38;;;5.07;;
39918;SDS011;25589;51.552;13.424;2023-03-16T08:47:26;11.05;;;4.03;;
39918;SDS011;25589;51.552;13.424;2023-03-16T08:49:53;9.45;;;4.43;;
39918;SDS011;25589;51.552;13.424;2023-03-16T08:52:19;5.78;;;3.85;;
39918;SDS011;25589;51.552;13.424;2023-03-16T08:54:45;10.07;;;3.90;;
39918;SDS011;25589;51.552;13.424;2023-03-16T08:57:11;6.65;;;3.92;;
39918;SDS011;25589;51.552;13.424;2023-03-16T08:59:36;7.13;;;3.92;;
39918;SDS011;25589;51.552;13.424;2023-03-16T09:02:02;17.00;;;5.78;;
39918;SDS011;25589;51.552;13.424;2023-03-16T09:04:28;17.92;;;7.03;;
39918;SDS011;25589;51.552;13.424;2023-03-16T09:06:54;17.15;;;6.80;;
39918;SDS011;25589;51.552;13.424;2023-03-16T09:09:20;7.82;;;4.60;;
39918;SDS011;25589;51.552;13.424;2023-03-16T09:11:46;9.55;;;3.50;;
39918;SDS011;25589;51.552;13.424;2023-03-16T09:14:13;7.10;;;3.22;;
39918;SDS011;25589;51.552;13.424;2023-03-16T09:16:39;9.95;;;4.03;;
39918;SDS011;25589;51.552;13.424;2023-03-16T09:19:05;8.70;;;3.97;;
39918;SDS011;25589;51.552;13.424;2023-03-16T09:21:31;6.22;;;3.95;;
39918;SDS011;25589;51.552;13.424;2023-03-16T09:23:59;7.78;;;3.67;;
39918;SDS011;25589;51.552;13.424;2023-03-16T09:26:25;8.38;;;3.88;;
39918;SDS011;25589;51.552;13.424;2023-03-16T09:28:52;6.45;;;3.58;;
39918;SDS011;25589;51.552;13.424;2023-03-16T09:31:18;9.02;;;3.78;;
39918;SDS011;25589;51.552;13.424;2023-03-16T09:33:45;5.00;;;3.08;;
39918;SDS011;25589;51.552;13.424;2023-03-16T09:36:12;6.97;;;2.92;;
39918;SDS011;25589;51.552;13.424;2023-03-16T09:38:38;5.82;;;2.95;;
39918;SDS011;25589;51.552;13.424;2023-03-16T09:41:08;7.22;;;3.13;;
39918;SDS011;25589;51.552;13.424;2023-03-16T09:43:48;8.35;;;3.17;;
39918;SDS011;25589;51.552;13.424;2023-03-16T09:46:36;6.45;;;2.83;;
39918;SDS011;25589;51.552;13.424;2023-03-16T09:49:09;7.10;;;2.95;;
39918;SDS011;25589;51.552;13.424;2023-03-16T09:57:28;8.20;;;2.15;;
39918;SDS011;25589;51.552;13.424;2023-03-16T10:00:16;9.65;;;3.08;;
39918;SDS011;25589;51.552;13.424;2023-03-16T10:05:34;4.07;;;1.70;;
39918;SDS011;25589;51.552;13.424;2023-03-16T10:13:48;4.82;;;1.77;;
39918;SDS011;25589;51.552;13.424;2023-03-16T10:16:34;3.60;;;1.77;;
39918;SDS011;25589;51.552;13.424;2023-03-16T10:19:16;5.90;;;2.00;;
39918;SDS011;25589;51.552;13.424;2023-03-16T10:21:49;7.50;;;2.20;;
39918;SDS011;25589;51.552;13.424;2023-03-16T10:24:22;5.35;;;1.95;;
39918;SDS011;25589;51.552;13.424;2023-03-16T10:27:06;5.35;;;1.73;;
39918;SDS011;25589;51.552;13.424;2023-03-16T10:29:44;3.30;;;1.63;;
39918;SDS011;25589;51.552;13.424;2023-03-16T10:32:11;4.72;;;2.03;;
39918;SDS011;25589;51.552;13.424;2023-03-16T10:34:40;3.20;;;2.00;;
39918;SDS011;25589;51.552;13.424;2023-03-16T10:37:17;5.25;;;1.50;;
39918;SDS011;25589;51.552;13.424;2023-03-16T10:39:46;4.57;;;2.10;;
39918;SDS011;25589;51.552;13.424;2023-03-16T10:42:13;3.90;;;2.03;;
39918;SDS011;25589;51.552;13.424;2023-03-16T10:44:41;4.57;;;1.83;;
39918;SDS011;25589;51.552;13.424;2023-03-16T10:47:14;4.93;;;1.92;;
39918;SDS011;25589;51.552;13.424;2023-03-16T10:49:47;6.00;;;2.25;;
39918;SDS011;25589;51.552;13.424;2023-03-16T10:52:34;5.07;;;2.25;;
39918;SDS011;25589;51.552;13.424;2023-03-16T10:55:13;4.32;;;2.00;;
39918;SDS011;25589;51.552;13.424;2023-03-16T10:57:48;6.05;;;1.75;;
39918;SDS011;25589;51.552;13.424;2023-03-16T11:02:47;5.70;;;1.90;;
39918;SDS011;25589;51.552;13.424;2023-03-16T11:05:23;4.60;;;1.85;;
39918;SDS011;25589;51.552;13.424;2023-03-16T11:07:50;4.20;;;1.90;;
39918;SDS011;25589;51.552;13.424;2023-03-16T11:10:30;3.00;;;1.48;;
39918;SDS011;25589;51.552;13.424;2023-03-16T11:13:01;4.10;;;1.60;;
39918;SDS011;25589;51.552;13.424;2023-03-16T11:15:32;4.22;;;1.67;;
39918;SDS011;25589;51.552;13.424;2023-03-16T11:18:01;2.53;;;1.70;;
39918;SDS011;25589;51.552;13.424;2023-03-16T11:20:27;3.45;;;1.60;;
39918;SDS011;25589;51.552;13.424;2023-03-16T11:22:57;2.42;;;1.30;;
39918;SDS011;25589;51.552;13.424;2023-03-16T11:25:28;4.30;;;2.10;;
39918;SDS011;25589;51.552;13.424;2023-03-16T11:28:04;3.13;;;1.55;;
39918;SDS011;25589;51.552;13.424;2023-03-16T11:30:48;1.80;;;1.17;;
39918;SDS011;25589;51.552;13.424;2023-03-16T11:33:19;4.13;;;1.83;;
39918;SDS011;25589;51.552;13.424;2023-03-16T11:35:55;2.63;;;1.73;;
39918;SDS011;25589;51.552;13.424;2023-03-16T11:38:39;2.50;;;1.42;;
39918;SDS011;25589;51.552;13.424;2023-03-16T11:41:12;2.83;;;1.60;;
39918;SDS011;25589;51.552;13.424;2023-03-16T11:46:18;4.20;;;1.52;;
39918;SDS011;25589;51.552;13.424;2023-03-16T11:56:56;5.05;;;1.60;;
39918;SDS011;25589;51.552;13.424;2023-03-16T12:07:52;3.45;;;1.63;;
39918;SDS011;25589;51.552;13.424;2023-03-16T12:10:50;3.13;;;1.20;;
39918;SDS011;25589;51.552;13.424;2023-03-16T12:16:41;2.10;;;1.42;;
39918;SDS011;25589;51.552;13.424;2023-03-16T12:19:33;2.97;;;1.52;;
39918;SDS011;25589;51.552;13.424;2023-03-16T12:22:22;3.38;;;1.60;;
39918;SDS011;25589;51.552;13.424;2023-03-16T12:25:16;4.80;;;1.48;;
39918;SDS011;25589;51.552;13.424;2023-03-16T12:27:46;3.88;;;1.40;;
39918;SDS011;25589;51.552;13.424;2023-03-16T12:33:16;3.38;;;1.80;;
39918;SDS011;25589;51.552;13.424;2023-03-16T12:35:58;4.60;;;1.65;;
39918;SDS011;25589;51.552;13.424;2023-03-16T12:44:13;3.08;;;1.58;;
39918;SDS011;25589;51.552;13.424;2023-03-16T12:46:55;2.88;;;1.48;;
39918;SDS011;25589;51.552;13.424;2023-03-16T12:49:43;3.90;;;1.60;;
39918;SDS011;25589;51.552;13.424;2023-03-16T12:52:10;4.47;;;1.35;;
39918;SDS011;25589;51.552;13.424;2023-03-16T12:54:47;5.30;;;2.13;;
39918;SDS011;25589;51.552;13.424;2023-03-16T12:57:18;2.47;;;1.33;;
39918;SDS011;25589;51.552;13.424;2023-03-16T12:59:47;7.15;;;2.08;;
39918;SDS011;25589;51.552;13.424;2023-03-16T13:02:19;4.57;;;1.92;;
39918;SDS011;25589;51.552;13.424;2023-03-16T13:04:54;4.05;;;1.63;;
39918;SDS011;25589;51.552;13.424;2023-03-16T13:07:26;3.78;;;1.60;;
39918;SDS011;25589;51.552;13.424;2023-03-16T13:09:57;3.45;;;1.50;;
39918;SDS011;25589;51.552;13.424;2023-03-16T13:14:52;3.75;;;1.55;;
39918;SDS011;25589;51.552;13.424;2023-03-16T13:22:47;5.03;;;1.92;;
39918;SDS011;25589;51.552;13.424;2023-03-16T13:25:16;3.75;;;1.30;;
39918;SDS011;25589;51.552;13.424;2023-03-16T13:27:47;2.60;;;1.63;;
39918;SDS011;25589;51.552;13.424;2023-03-16T13:30:23;3.13;;;1.42;;
39918;SDS011;25589;51.552;13.424;2023-03-16T13:35:25;2.70;;;1.20;;
39918;SDS011;25589;51.552;13.424;2023-03-16T13:37:53;2.05;;;1.33;;
39918;SDS011;25589;51.552;13.424;2023-03-16T13:40:20;2.83;;;1.45;;
39918;SDS011;25589;51.552;13.424;2023-03-16T13:42:51;3.60;;;1.57;;
39918;SDS011;25589;51.552;13.424;2023-03-16T13:45:20;4.40;;;1.45;;
39918;SDS011;25589;51.552;13.424;2023-03-16T13:47:48;2.67;;;1.25;;
39918;SDS011;25589;51.552;13.424;2023-03-16T13:50:14;2.50;;;1.35;;
39918;SDS011;25589;51.552;13.424;2023-03-16T13:52:41;2.42;;;1.33;;
39918;SDS011;25589;51.552;13.424;2023-03-16T13:55:17;5.40;;;2.05;;
39918;SDS011;25589;51.552;13.424;2023-03-16T13:57:49;4.40;;;1.30;;
39918;SDS011;25589;51.552;13.424;2023-03-16T14:00:17;6.45;;;1.80;;
39918;SDS011;25589;51.552;13.424;2023-03-16T14:02:52;1.70;;;1.35;;
39918;SDS011;25589;51.552;13.424;2023-03-16T14:05:22;4.68;;;1.45;;
39918;SDS011;25589;51.552;13.424;2023-03-16T14:07:50;6.18;;;2.20;;
39918;SDS011;25589;51.552;13.424;2023-03-16T14:10:16;2.70;;;1.38;;
39918;SDS011;25589;51.552;13.424;2023-03-16T14:12:49;3.05;;;1.30;;
39918;SDS011;25589;51.552;13.424;2023-03-16T14:15:26;3.60;;;1.23;;
39918;SDS011;25589;51.552;13.424;2023-03-16T14:17:54;5.57;;;1.50;;
39918;SDS011;25589;51.552;13.424;2023-03-16T14:20:51;3.20;;;1.30;;
39918;SDS011;25589;51.552;13.424;2023-03-16T14:23:19;4.70;;;1.55;;
39918;SDS011;25589;51.552;13.424;2023-03-16T14:25:49;3.27;;;1.80;;
39918;SDS011;25589;51.552;13.424;2023-03-16T14:28:18;4.13;;;1.52;;
39918;SDS011;25589;51.552;13.424;2023-03-16T14:31:00;2.97;;;1.60;;
39918;SDS011;25589;51.552;13.424;2023-03-16T14:33:44;1.80;;;1.33;;
39918;SDS011;25589;51.552;13.424;2023-03-16T14:36:17;4.05;;;1.67;;
39918;SDS011;25589;51.552;13.424;2023-03-16T14:38:45;2.13;;;1.65;;
39918;SDS011;25589;51.552;13.424;2023-03-16T14:41:24;5.60;;;1.48;;
39918;SDS011;25589;51.552;13.424;2023-03-16T14:43:58;5.38;;;1.83;;
39918;SDS011;25589;51.552;13.424;2023-03-16T14:46:26;4.82;;;1.45;;
39918;SDS011;25589;51.552;13.424;2023-03-16T14:49:06;2.92;;;1.50;;
39918;SDS011;25589;51.552;13.424;2023-03-16T14:51:42;1.50;;;1.00;;
39918;SDS011;25589;51.552;13.424;2023-03-16T14:54:11;2.70;;;1.35;;
39918;SDS011;25589;51.552;13.424;2023-03-16T14:56:38;2.25;;;1.20;;
39918;SDS011;25589;51.552;13.424;2023-03-16T14:59:04;3.95;;;1.33;;
39918;SDS011;25589;51.552;13.424;2023-03-16T15:01:30;5.15;;;1.50;;
39918;SDS011;25589;51.552;13.424;2023-03-16T15:03:56;2.67;;;1.25;;
39918;SDS011;25589;51.552;13.424;2023-03-16T15:06:22;3.40;;;1.48;;
39918;SDS011;25589;51.552;13.424;2023-03-16T15:08:48;3.25;;;1.20;;
39918;SDS011;25589;51.552;13.424;2023-03-16T15:11:14;2.55;;;1.10;;
39918;SDS011;25589;51.552;13.424;2023-03-16T15:13:45;5.95;;;1.50;;
39918;SDS011;25589;51.552;13.424;2023-03-16T15:16:12;4.13;;;1.55;;
39918;SDS011;25589;51.552;13.424;2023-03-16T15:18:38;4.03;;;1.73;;
39918;SDS011;25589;51.552;13.424;2023-03-16T15:21:11;4.75;;;1.50;;
39918;SDS011;25589;51.552;13.424;2023-03-16T15:23:40;3.88;;;1.50;;
39918;SDS011;25589;51.552;13.424;2023-03-16T15:26:07;2.17;;;1.33;;
39918;SDS011;25589;51.552;13.424;2023-03-16T15:28:35;3.42;;;1.55;;
39918;SDS011;25589;51.552;13.424;2023-03-16T15:31:01;5.40;;;1.50;;
39918;SDS011;25589;51.552;13.424;2023-03-16T15:33:27;3.55;;;1.50;;
39918;SDS011;25589;51.552;13.424;2023-03-16T15:35:54;2.85;;;1.27;;
39918;SDS011;25589;51.552;13.424;2023-03-16T15:38:23;4.55;;;1.33;;
39918;SDS011;25589;51.552;13.424;2023-03-16T15:40:52;3.28;;;1.73;;
39918;SDS011;25589;51.552;13.424;2023-03-16T15:43:18;4.20;;;2.40;;
39918;SDS011;25589;51.552;13.424;2023-03-16T15:45:46;2.85;;;1.30;;
39918;SDS011;25589;51.552;13.424;2023-03-16T15:48:12;3.45;;;1.50;;
39918;SDS011;25589;51.552;13.424;2023-03-16T15:50:39;2.80;;;1.48;;